createdAt,value
2022-11-14T00:01:08.759Z,97329.97
2022-11-14T00:03:56.013Z,97323.97
2022-11-14T00:06:43.416Z,97324.94
2022-11-14T00:09:32.351Z,97328.41
2022-11-14T00:12:19.509Z,97314.53
2022-11-14T00:15:07.794Z,97324.47
2022-11-14T00:17:54.893Z,97320.88
2022-11-14T00:20:41.917Z,97318.13
2022-11-14T00:23:29.017Z,97314.78
2022-11-14T00:26:17.459Z,97327.00
2022-11-14T00:29:05.275Z,97319.47
2022-11-14T00:31:52.375Z,97330.84
2022-11-14T00:34:39.590Z,97323.06
2022-11-14T00:37:27.033Z,97325.81
2022-11-14T00:40:14.859Z,97330.13
2022-11-14T00:43:03.183Z,97332.75
2022-11-14T00:45:50.500Z,97332.91
2022-11-14T00:48:37.499Z,97331.94
2022-11-14T00:51:24.583Z,97337.31
2022-11-14T00:54:11.635Z,97336.38
2022-11-14T00:56:58.746Z,97328.59
2022-11-14T00:59:47.565Z,97332.31
2022-11-14T01:02:34.857Z,97331.34
2022-11-14T01:05:23.007Z,97326.06
2022-11-14T01:08:10.337Z,97320.09
2022-11-14T01:10:59.114Z,97317.47
2022-11-14T01:13:47.597Z,97319.25
2022-11-14T01:16:36.182Z,97308.97
2022-11-14T01:19:23.310Z,97316.16
2022-11-14T01:22:10.783Z,97304.41
2022-11-14T01:24:58.366Z,97319.50
2022-11-14T01:27:45.406Z,97316.16
2022-11-14T01:30:32.989Z,97322.16
2022-11-14T01:33:23.416Z,97329.34
2022-11-14T01:36:11.023Z,97319.75
2022-11-14T01:38:58.210Z,97316.28
2022-11-14T01:41:45.460Z,97304.94
2022-11-14T01:44:46.972Z,97311.88
2022-11-14T01:47:34.455Z,97310.19
2022-11-14T01:50:22.872Z,97312.13
2022-11-14T01:53:10.239Z,97314.75
2022-11-14T01:56:00.053Z,97308.53
2022-11-14T01:58:51.543Z,97308.53
2022-11-14T02:01:43.642Z,97314.75
2022-11-14T02:04:33.076Z,97312.13
2022-11-14T02:07:21.509Z,97307.94
2022-11-14T02:10:10.980Z,97301.69
2022-11-14T02:12:58.443Z,97302.78
2022-11-14T02:15:45.683Z,97298.63
2022-11-14T02:18:32.689Z,97293.59
2022-11-14T02:21:21.302Z,97309.84
2022-11-14T02:24:10.771Z,97315.38
2022-11-14T02:26:57.767Z,97321.34
2022-11-14T02:29:44.725Z,97322.19
2022-11-14T02:32:45.116Z,97312.88
2022-11-14T02:35:38.899Z,97301.38
2022-11-14T02:38:27.790Z,97312.63
2022-11-14T02:41:15.292Z,97308.44
2022-11-14T02:44:02.680Z,97318.13
2022-11-14T02:46:49.775Z,97313.69
2022-11-14T02:49:37.029Z,97320.06
2022-11-14T02:52:24.241Z,97301.63
2022-11-14T02:55:13.547Z,97300.06
2022-11-14T02:58:00.354Z,97314.78
2022-11-14T03:01:13.395Z,97293.97
2022-11-14T03:03:54.170Z,97285.09
2022-11-14T03:06:41.073Z,97277.91
2022-11-14T03:09:28.465Z,97264.03
2022-11-14T03:12:18.909Z,97269.19
2022-11-14T03:15:07.623Z,97279.00
2022-11-14T03:17:54.887Z,97279.84
2022-11-14T03:20:42.179Z,97275.53
2022-11-14T03:23:29.240Z,97283.44
2022-11-14T03:26:17.048Z,97290.63
2022-11-14T03:29:05.667Z,97288.00
2022-11-14T03:31:52.563Z,97284.53
2022-11-14T03:34:39.792Z,97282.03
2022-11-14T03:37:26.900Z,97288.00
2022-11-14T03:40:13.969Z,97287.28
2022-11-14T03:43:01.055Z,97284.66
2022-11-14T03:45:49.573Z,97279.63
2022-11-14T03:48:37.109Z,97277.00
2022-11-14T03:51:24.279Z,97282.41
2022-11-14T03:54:11.342Z,97289.47
2022-11-14T03:56:58.292Z,97279.63
2022-11-14T03:59:45.584Z,97271.75
2022-11-14T04:02:34.071Z,97259.53
2022-11-14T04:05:20.814Z,97256.91
2022-11-14T04:08:08.687Z,97258.56
2022-11-14T04:10:56.033Z,97256.91
2022-11-14T04:13:42.874Z,97256.91
2022-11-14T04:16:29.997Z,97262.16
2022-11-14T04:19:18.757Z,97265.75
2022-11-14T04:22:06.325Z,97282.41
2022-11-14T04:24:53.604Z,97284.19
2022-11-14T04:27:40.815Z,97286.94
2022-11-14T04:30:32.177Z,97273.91
2022-11-14T04:33:21.437Z,97265.06
2022-11-14T04:36:10.149Z,97267.81
2022-11-14T04:38:57.199Z,97274.88
2022-11-14T04:41:44.234Z,97282.06
2022-11-14T04:44:31.503Z,97271.53
2022-11-14T04:47:18.710Z,97277.50
2022-11-14T04:50:06.531Z,97282.78
2022-11-14T04:52:54.897Z,97287.06
2022-11-14T04:55:41.627Z,97281.09
2022-11-14T04:58:29.457Z,97292.59
2022-11-14T05:01:16.418Z,97289.94
2022-11-14T05:04:03.552Z,97277.88
2022-11-14T05:06:50.696Z,97284.09
2022-11-14T05:09:38.940Z,97263.03
2022-11-14T05:12:26.127Z,97266.50
2022-11-14T05:15:13.289Z,97254.44
2022-11-14T05:18:00.541Z,97256.94
2022-11-14T05:20:47.279Z,97261.38
2022-11-14T05:23:34.238Z,97259.56
2022-11-14T05:26:22.683Z,97250.00
2022-11-14T05:29:10.194Z,97257.91
2022-11-14T05:31:57.839Z,97259.69
2022-11-14T05:34:44.531Z,97258.88
2022-11-14T05:37:31.626Z,97251.94
2022-11-14T05:40:19.345Z,97245.13
2022-11-14T05:43:08.006Z,97256.34
2022-11-14T05:45:55.549Z,97244.16
2022-11-14T05:48:42.667Z,97230.16
2022-11-14T05:51:29.485Z,97217.84
2022-11-14T05:54:16.423Z,97210.91
2022-11-14T05:57:03.447Z,97203.13
2022-11-14T05:59:51.984Z,97217.97
2022-11-14T06:02:39.230Z,97244.16
2022-11-14T06:05:26.683Z,97273.34
2022-11-14T06:08:19.252Z,97294.28
2022-11-14T06:11:07.942Z,97295.25
2022-11-14T06:13:55.051Z,97312.84
2022-11-14T06:16:43.703Z,97300.63
2022-11-14T06:19:30.776Z,97304.09
2022-11-14T06:22:17.990Z,97311.28
2022-11-14T06:25:05.315Z,97309.78
2022-11-14T06:27:52.338Z,97313.22
2022-11-14T06:30:41.367Z,97331.38
2022-11-14T06:33:30.914Z,97330.81
2022-11-14T06:36:18.850Z,97329.16
2022-11-14T06:39:06.018Z,97335.09
2022-11-14T06:41:52.823Z,97338.84
2022-11-14T06:44:39.931Z,97346.47
2022-11-14T06:47:26.861Z,97361.41
2022-11-14T06:50:15.409Z,97354.50
2022-11-14T06:53:02.488Z,97369.47
2022-11-14T06:56:00.045Z,97350.31
2022-11-14T06:58:49.015Z,97358.94
2022-11-14T07:01:35.934Z,97355.47
2022-11-14T07:04:23.307Z,97361.81
2022-11-14T07:07:11.508Z,97367.06
2022-11-14T07:09:58.828Z,97366.13
2022-11-14T07:12:45.839Z,97355.59
2022-11-14T07:15:33.037Z,97359.91
2022-11-14T07:18:20.601Z,97352.94
2022-11-14T07:21:08.035Z,97366.00
2022-11-14T07:23:56.797Z,97362.66
2022-11-14T07:26:43.970Z,97352.00
2022-11-14T07:29:30.800Z,97352.94
2022-11-14T07:32:18.041Z,97351.03
2022-11-14T07:35:13.170Z,97346.03
2022-11-14T07:38:03.788Z,97333.69
2022-11-14T07:41:01.387Z,97347.69
2022-11-14T07:43:48.420Z,97343.38
2022-11-14T07:46:35.618Z,97332.84
2022-11-14T07:49:22.906Z,97339.69
2022-11-14T07:52:11.498Z,97331.06
2022-11-14T07:54:58.512Z,97312.75
2022-11-14T07:57:49.133Z,97302.13
2022-11-14T08:00:36.555Z,97309.78
2022-11-14T08:03:24.014Z,97307.69
2022-11-14T08:06:12.710Z,97306.16
2022-11-14T08:09:01.143Z,97298.41
2022-11-14T08:11:51.887Z,97292.31
2022-11-14T08:14:38.861Z,97305.34
2022-11-14T08:17:26.176Z,97298.41
2022-11-14T08:20:13.493Z,97302.72
2022-11-14T08:23:04.665Z,97316.66
2022-11-14T08:25:53.251Z,97314.19
2022-11-14T08:28:40.621Z,97321.13
2022-11-14T08:31:28.178Z,97310.59
2022-11-14T08:34:15.395Z,97305.34
2022-11-14T08:37:02.981Z,97306.97
2022-11-14T08:39:50.196Z,97313.09
2022-11-14T08:42:38.672Z,97293.81
2022-11-14T08:45:26.135Z,97296.44
2022-11-14T08:48:13.197Z,97297.16
2022-11-14T08:51:04.200Z,97286.75
2022-11-14T08:53:52.398Z,97294.53
2022-11-14T08:56:39.979Z,97288.56
2022-11-14T08:59:28.565Z,97296.34
2022-11-14T09:02:16.086Z,97302.56
2022-11-14T09:05:04.712Z,97290.22
2022-11-14T09:07:51.825Z,97300.63
2022-11-14T09:10:38.922Z,97306.84
2022-11-14T09:13:27.640Z,97320.84
2022-11-14T09:16:16.543Z,97320.84
2022-11-14T09:19:04.096Z,97322.66
2022-11-14T09:21:51.604Z,97330.53
2022-11-14T09:24:39.160Z,97324.31
2022-11-14T09:27:28.923Z,97341.91
2022-11-14T09:30:17.180Z,97346.34
2022-11-14T09:33:11.504Z,97334.00
2022-11-14T09:35:59.554Z,97331.38
2022-11-14T09:38:47.836Z,97327.78
2022-11-14T09:41:46.763Z,97327.78
2022-11-14T09:44:42.202Z,97325.16
2022-11-14T09:47:31.546Z,97339.03
2022-11-14T09:50:25.865Z,97343.47
2022-11-14T09:53:24.769Z,97346.09
2022-11-14T09:56:13.686Z,97357.47
2022-11-14T09:59:00.880Z,97367.03
2022-11-14T10:01:52.977Z,97354.09
2022-11-14T10:04:50.748Z,97352.31
2022-11-14T10:07:48.564Z,97347.88
2022-11-14T10:10:51.709Z,97358.41
2022-11-14T10:13:51.103Z,97363.31
2022-11-14T10:16:43.379Z,97345.69
2022-11-14T10:19:42.393Z,97350.97
2022-11-14T10:22:45.566Z,97356.94
2022-11-14T10:25:43.853Z,97353.47
2022-11-14T10:28:55.305Z,97350.72
2022-11-14T10:31:49.497Z,97349.50
2022-11-14T10:34:43.050Z,97354.41
2022-11-14T10:37:33.985Z,97355.00
2022-11-14T10:40:24.783Z,97351.75
2022-11-14T10:43:20.044Z,97348.75
2022-11-14T10:46:10.677Z,97350.41
2022-11-14T10:49:00.343Z,97331.72
2022-11-14T10:51:51.582Z,97335.78
2022-11-14T10:54:43.455Z,97333.34
2022-11-14T10:57:31.937Z,97344.47
2022-11-14T11:00:23.231Z,97338.13
2022-11-14T11:03:10.934Z,97351.03
2022-11-14T11:05:58.470Z,97351.47
2022-11-14T11:09:03.492Z,97353.50
2022-11-14T11:11:57.170Z,97367.03
2022-11-14T11:14:46.113Z,97364.00
2022-11-14T11:17:37.343Z,97355.72
2022-11-14T11:20:32.280Z,97380.84
2022-11-14T11:23:21.584Z,97376.16
2022-11-14T11:26:12.161Z,97386.31
2022-11-14T11:29:16.415Z,97376.41
2022-11-14T11:32:06.324Z,97377.94
2022-11-14T11:34:53.856Z,97377.69
2022-11-14T11:37:43.899Z,97374.78
2022-11-14T11:40:31.491Z,97387.84
2022-11-14T11:43:43.132Z,97392.03
2022-11-14T11:46:33.192Z,97384.81
2022-11-14T11:49:36.951Z,97383.03
2022-11-14T11:52:32.088Z,97388.44
2022-11-14T11:55:22.924Z,97377.75
2022-11-14T11:58:13.792Z,97387.34
2022-11-14T12:01:00.741Z,97376.91
2022-11-14T12:03:50.348Z,97375.38
2022-11-14T12:06:44.007Z,97366.88
2022-11-14T12:10:08.264Z,97365.22
2022-11-14T12:13:15.137Z,97363.53
2022-11-14T12:16:13.215Z,97366.44
2022-11-14T12:19:28.212Z,97363.78
2022-11-14T12:22:43.196Z,97358.53
2022-11-14T12:25:36.593Z,97352.28
2022-11-14T12:28:43.116Z,97354.78
2022-11-14T12:31:33.881Z,97348.69
2022-11-14T12:34:27.172Z,97360.06
2022-11-14T12:37:19.248Z,97359.22
2022-11-14T12:40:13.616Z,97366.19
2022-11-14T12:43:01.816Z,97357.44
2022-11-14T12:46:03.155Z,97360.78
2022-11-14T12:48:50.366Z,97366.03
2022-11-14T12:51:51.648Z,97359.09
2022-11-14T12:54:45.665Z,97366.88
2022-11-14T12:57:49.581Z,97366.88
2022-11-14T13:00:39.669Z,97358.97
2022-11-14T13:03:38.560Z,97359.81
2022-11-14T13:06:28.242Z,97354.28
2022-11-14T13:09:36.895Z,97357.88
2022-11-14T13:12:47.007Z,97350.81
2022-11-14T13:16:07.642Z,97359.56
2022-11-14T13:19:14.472Z,97349.97
2022-11-14T13:22:47.190Z,97337.75
2022-11-14T13:25:34.333Z,97345.66
2022-11-14T13:28:47.868Z,97348.28
2022-11-14T13:31:48.564Z,97348.16
2022-11-14T13:34:46.329Z,97345.66
2022-11-14T13:37:53.179Z,97340.38
2022-11-14T13:40:45.643Z,97340.38
2022-11-14T13:43:47.266Z,97320.38
2022-11-14T13:46:51.696Z,97319.41
2022-11-14T13:49:53.478Z,97315.13
2022-11-14T13:52:43.406Z,97311.50
2022-11-14T13:55:38.806Z,97311.50
2022-11-14T13:58:35.574Z,97308.88
2022-11-14T14:01:41.937Z,97309.13
2022-11-14T14:04:41.961Z,97298.59
2022-11-14T14:07:36.782Z,97301.34
2022-11-14T14:10:29.089Z,97297.88
2022-11-14T14:13:27.013Z,97300.66
2022-11-14T14:16:19.717Z,97309.41
2022-11-14T14:19:12.956Z,97309.53
2022-11-14T14:22:06.765Z,97302.56
2022-11-14T14:24:59.084Z,97295.50
2022-11-14T14:27:55.720Z,97294.53
2022-11-14T14:31:01.895Z,97292.88
2022-11-14T14:33:50.499Z,97296.47
2022-11-14T14:36:37.872Z,97286.75
2022-11-14T14:39:27.724Z,97291.19
2022-11-14T14:42:14.695Z,97282.44
2022-11-14T14:45:04.171Z,97285.94
2022-11-14T14:47:52.982Z,97283.28
2022-11-14T14:50:42.477Z,97284.25
2022-11-14T14:53:30.906Z,97293.00
2022-11-14T14:56:22.434Z,97277.31
2022-11-14T14:59:19.231Z,97280.03
2022-11-14T15:02:13.839Z,97281.72
2022-11-14T15:05:02.097Z,97293.97
2022-11-14T15:07:50.408Z,97280.88
2022-11-14T15:10:38.948Z,97273.09
2022-11-14T15:13:29.034Z,97277.41
2022-11-14T15:16:16.181Z,97273.09
2022-11-14T15:19:03.949Z,97265.06
2022-11-14T15:22:05.015Z,97269.63
2022-11-14T15:25:20.588Z,97273.94
2022-11-14T15:28:15.229Z,97272.28
2022-11-14T15:31:05.781Z,97270.59
2022-11-14T15:34:04.363Z,97281.16
2022-11-14T15:37:21.731Z,97278.50
2022-11-14T15:40:19.667Z,97271.56
2022-11-14T15:43:38.921Z,97273.22
2022-11-14T15:46:39.313Z,97271.56
2022-11-14T15:49:28.151Z,97265.47
2022-11-14T15:52:21.115Z,97266.41
2022-11-14T15:55:14.675Z,97275.16
2022-11-14T15:58:26.410Z,97276.13
2022-11-14T16:01:16.315Z,97261.28
2022-11-14T16:04:04.927Z,97265.72
2022-11-14T16:06:52.128Z,97275.41
2022-11-14T16:09:39.483Z,97276.25
2022-11-14T16:12:26.741Z,97281.53
2022-11-14T16:15:14.282Z,97283.34
2022-11-14T16:18:02.730Z,97275.41
2022-11-14T16:20:58.678Z,97279.84
2022-11-14T16:23:45.802Z,97276.38
2022-11-14T16:26:32.996Z,97279.03
2022-11-14T16:29:20.732Z,97266.69
2022-11-14T16:32:10.628Z,97264.19
2022-11-14T16:34:57.875Z,97255.44
2022-11-14T16:37:46.799Z,97253.63
2022-11-14T16:40:34.065Z,97257.22
2022-11-14T16:43:21.487Z,97251.97
2022-11-14T16:46:09.053Z,97258.06
2022-11-14T16:48:56.295Z,97257.22
2022-11-14T16:51:48.278Z,97262.50
2022-11-14T16:54:38.468Z,97265.13
2022-11-14T16:57:26.191Z,97263.47
2022-11-14T17:00:14.664Z,97265.28
2022-11-14T17:03:02.114Z,97270.41
2022-11-14T17:05:50.739Z,97266.09
2022-11-14T17:08:37.783Z,97262.63
2022-11-14T17:11:27.131Z,97265.28
2022-11-14T17:14:14.691Z,97269.72
2022-11-14T17:17:02.188Z,97271.50
2022-11-14T17:19:49.792Z,97268.03
2022-11-14T17:22:37.099Z,97268.88
2022-11-14T17:25:25.078Z,97278.69
2022-11-14T17:28:15.310Z,97281.34
2022-11-14T17:31:08.267Z,97306.84
2022-11-14T17:33:57.044Z,97297.41
2022-11-14T17:36:44.559Z,97297.28
2022-11-14T17:39:31.967Z,97300.03
2022-11-14T17:42:18.926Z,97294.78
2022-11-14T17:45:08.971Z,97299.09
2022-11-14T17:47:56.834Z,97307.13
2022-11-14T17:50:44.804Z,97307.13
2022-11-14T17:53:33.982Z,97306.16
2022-11-14T17:56:22.748Z,97310.72
2022-11-14T17:59:09.834Z,97300.31
2022-11-14T18:02:00.081Z,97299.34
2022-11-14T18:04:48.861Z,97301.97
2022-11-14T18:07:37.168Z,97299.34
2022-11-14T18:10:25.054Z,97303.78
2022-11-14T18:13:12.452Z,97302.81
2022-11-14T18:16:02.772Z,97296.84
2022-11-14T18:18:52.295Z,97298.63
2022-11-14T18:21:40.057Z,97304.75
2022-11-14T18:24:27.626Z,97305.56
2022-11-14T18:27:15.352Z,97299.47
2022-11-14T18:30:19.729Z,97301.41
2022-11-14T18:33:09.955Z,97290.16
2022-11-14T18:35:59.808Z,97296.13
2022-11-14T18:38:47.804Z,97292.78
2022-11-14T18:41:35.648Z,97291.81
2022-11-14T18:44:24.325Z,97289.19
2022-11-14T18:47:11.877Z,97293.63
2022-11-14T18:50:01.257Z,97280.56
2022-11-14T18:52:49.880Z,97291.94
2022-11-14T18:55:40.032Z,97286.69
2022-11-14T18:58:27.169Z,97282.53
2022-11-14T19:01:16.481Z,97279.06
2022-11-14T19:04:05.306Z,97276.25
2022-11-14T19:06:52.818Z,97279.06
2022-11-14T19:09:41.239Z,97278.22
2022-11-14T19:12:28.209Z,97277.38
2022-11-14T19:15:15.775Z,97280.16
2022-11-14T19:18:03.059Z,97267.94
2022-11-14T19:20:57.794Z,97277.50
2022-11-14T19:23:45.036Z,97270.56
2022-11-14T19:26:33.741Z,97271.41
2022-11-14T19:29:21.027Z,97276.81
2022-11-14T19:32:08.744Z,97276.81
2022-11-14T19:34:55.780Z,97273.34
2022-11-14T19:37:43.130Z,97276.94
2022-11-14T19:40:31.081Z,97275.13
2022-11-14T19:43:19.885Z,97270.69
2022-11-14T19:46:07.925Z,97278.72
2022-11-14T19:48:56.994Z,97272.63
2022-11-14T19:51:44.324Z,97270.13
2022-11-14T19:54:31.700Z,97263.06
2022-11-14T19:57:18.854Z,97269.28
2022-11-14T20:00:09.116Z,97268.44
2022-11-14T20:02:56.571Z,97261.63
2022-11-14T20:05:43.939Z,97262.59
2022-11-14T20:08:31.081Z,97275.91
2022-11-14T20:11:18.837Z,97269.78
2022-11-14T20:14:06.870Z,97274.34
2022-11-14T20:16:55.434Z,97277.81
2022-11-14T20:19:42.542Z,97283.34
2022-11-14T20:22:29.602Z,97275.44
2022-11-14T20:25:17.118Z,97279.88
2022-11-14T20:28:07.888Z,97272.94
2022-11-14T20:30:55.336Z,97278.34
2022-11-14T20:33:45.852Z,97264.31
2022-11-14T20:36:56.767Z,97269.72
2022-11-14T20:39:39.985Z,97269.97
2022-11-14T20:42:27.206Z,97268.31
2022-11-14T20:45:14.719Z,97270.94
2022-11-14T20:48:01.717Z,97268.31
2022-11-14T20:50:50.333Z,97264.97
2022-11-14T20:53:37.163Z,97262.19
2022-11-14T20:56:24.593Z,97268.31
2022-11-14T20:59:11.907Z,97261.63
2022-11-14T21:01:59.155Z,97271.91
2022-11-14T21:04:46.464Z,97270.22
2022-11-14T21:07:35.078Z,97269.38
2022-11-14T21:10:42.089Z,97267.59
2022-11-14T21:13:47.326Z,97256.22
2022-11-14T21:16:36.364Z,97259.69
2022-11-14T21:19:24.419Z,97251.91
2022-11-14T21:22:11.332Z,97258.97
2022-11-14T21:25:00.604Z,97253.72
2022-11-14T21:27:47.976Z,97245.81
2022-11-14T21:30:35.476Z,97241.50
2022-11-14T21:33:22.700Z,97246.66
2022-11-14T21:36:38.126Z,97239.72
2022-11-14T21:39:18.189Z,97235.41
2022-11-14T21:42:06.870Z,97239.72
2022-11-14T21:44:53.835Z,97240.69
2022-11-14T21:47:41.354Z,97239.97
2022-11-14T21:50:28.408Z,97237.22
2022-11-14T21:53:16.704Z,97252.16
2022-11-14T21:56:11.943Z,97237.22
2022-11-14T21:59:14.105Z,97232.91
2022-11-14T22:02:18.999Z,97233.88
2022-11-14T22:05:06.723Z,97235.66
2022-11-14T22:07:53.841Z,97226.94
2022-11-14T22:10:41.063Z,97231.34
2022-11-14T22:13:30.684Z,97226.09
2022-11-14T22:16:20.804Z,97225.25
2022-11-14T22:19:08.342Z,97222.63
2022-11-14T22:21:55.638Z,97230.53
2022-11-14T22:24:42.796Z,97229.69
2022-11-14T22:27:30.018Z,97225.25
2022-11-14T22:30:17.727Z,97234.13
2022-11-14T22:33:06.075Z,97235.91
2022-11-14T22:35:53.508Z,97238.69
2022-11-14T22:38:41.225Z,97232.31
2022-11-14T22:41:32.666Z,97232.44
2022-11-14T22:44:20.225Z,97237.84
2022-11-14T22:47:07.421Z,97240.47
2022-11-14T22:49:55.986Z,97238.81
2022-11-14T22:52:43.625Z,97245.88
2022-11-14T22:55:30.571Z,97233.66
2022-11-14T22:58:17.642Z,97236.16
2022-11-14T23:01:11.936Z,97232.69
2022-11-14T23:04:00.854Z,97230.06
2022-11-14T23:06:49.658Z,97234.38
2022-11-14T23:09:37.268Z,97238.94
2022-11-14T23:12:24.421Z,97231.03
2022-11-14T23:15:12.041Z,97232.69
2022-11-14T23:18:00.812Z,97231.03
2022-11-14T23:20:48.057Z,97229.34
2022-11-14T23:23:36.767Z,97231.03
2022-11-14T23:26:24.286Z,97232.13
2022-11-14T23:29:14.090Z,97233.78
2022-11-14T23:32:01.700Z,97231.16
2022-11-14T23:34:48.565Z,97225.91
2022-11-14T23:37:35.595Z,97227.69
2022-11-14T23:40:24.253Z,97226.03
2022-11-14T23:43:11.497Z,97229.47
2022-11-14T23:45:59.130Z,97226.03
2022-11-14T23:48:46.218Z,97224.22
2022-11-14T23:51:33.932Z,97226.03
2022-11-14T23:54:21.102Z,97224.34
2022-11-14T23:57:09.849Z,97217.41
2022-11-14T23:59:57.096Z,97212.16
